sensor_id;sensor_type;location;lat;lon;timestamp;temperature;humidity
25024;DHT22;13033;50.936;5.334;2023-07-13T00:00:23;18.20;1.00
25024;DHT22;13033;50.936;5.334;2023-07-13T00:02:49;18.10;1.00
25024;DHT22;13033;50.936;5.334;2023-07-13T00:05:15;18.00;1.00
25024;DHT22;13033;50.936;5.334;2023-07-13T00:07:40;17.90;1.00
25024;DHT22;13033;50.936;5.334;2023-07-13T00:10:07;17.80;1.00
25024;DHT22;13033;50.936;5.334;2023-07-13T00:12:37;17.60;1.00
25024;DHT22;13033;50.936;5.334;2023-07-13T00:15:07;17.50;1.00
25024;DHT22;13033;50.936;5.334;2023-07-13T00:17:35;17.60;1.00
25024;DHT22;13033;50.936;5.334;2023-07-13T00:20:00;17.70;1.00
25024;DHT22;13033;50.936;5.334;2023-07-13T00:22:26;17.70;1.00
25024;DHT22;13033;50.936;5.334;2023-07-13T00:24:53;17.50;1.00
25024;DHT22;13033;50.936;5.334;2023-07-13T00:27:21;17.40;1.00
25024;DHT22;13033;50.936;5.334;2023-07-13T00:29:46;17.40;1.00
25024;DHT22;13033;50.936;5.334;2023-07-13T00:32:12;17.50;1.00
25024;DHT22;13033;50.936;5.334;2023-07-13T00:34:38;17.50;1.00
25024;DHT22;13033;50.936;5.334;2023-07-13T00:37:05;17.60;1.00
25024;DHT22;13033;50.936;5.334;2023-07-13T00:39:32;17.50;1.00
25024;DHT22;13033;50.936;5.334;2023-07-13T00:41:58;17.40;1.00
25024;DHT22;13033;50.936;5.334;2023-07-13T00:44:24;17.40;1.00
25024;DHT22;13033;50.936;5.334;2023-07-13T00:46:50;17.40;1.00
25024;DHT22;13033;50.936;5.334;2023-07-13T00:49:20;17.50;1.00
25024;DHT22;13033;50.936;5.334;2023-07-13T00:52:05;17.50;1.00
25024;DHT22;13033;50.936;5.334;2023-07-13T00:54:41;17.40;1.00
25024;DHT22;13033;50.936;5.334;2023-07-13T00:57:14;17.40;1.00
25024;DHT22;13033;50.936;5.334;2023-07-13T00:59:42;17.40;1.00
25024;DHT22;13033;50.936;5.334;2023-07-13T01:02:09;17.40;1.00
25024;DHT22;13033;50.936;5.334;2023-07-13T01:04:35;17.40;1.00
25024;DHT22;13033;50.936;5.334;2023-07-13T01:07:01;17.40;1.00
25024;DHT22;13033;50.936;5.334;2023-07-13T01:09:27;17.30;1.00
25024;DHT22;13033;50.936;5.334;2023-07-13T01:11:53;17.40;1.00
25024;DHT22;13033;50.936;5.334;2023-07-13T01:14:19;17.30;1.00
25024;DHT22;13033;50.936;5.334;2023-07-13T01:16:46;17.30;1.00
25024;DHT22;13033;50.936;5.334;2023-07-13T01:22:10;17.40;1.00
25024;DHT22;13033;50.936;5.334;2023-07-13T01:24:40;17.30;1.00
25024;DHT22;13033;50.936;5.334;2023-07-13T01:27:09;17.20;1.00
25024;DHT22;13033;50.936;5.334;2023-07-13T01:29:36;17.10;1.00
25024;DHT22;13033;50.936;5.334;2023-07-13T01:32:11;17.10;1.00
25024;DHT22;13033;50.936;5.334;2023-07-13T01:34:37;17.20;1.00
25024;DHT22;13033;50.936;5.334;2023-07-13T01:37:04;17.20;1.00
25024;DHT22;13033;50.936;5.334;2023-07-13T01:39:30;17.30;1.00
25024;DHT22;13033;50.936;5.334;2023-07-13T01:41:57;17.10;1.00
25024;DHT22;13033;50.936;5.334;2023-07-13T01:44:23;17.10;1.00
25024;DHT22;13033;50.936;5.334;2023-07-13T01:46:48;17.10;1.00
25024;DHT22;13033;50.936;5.334;2023-07-13T01:49:14;17.00;1.00
25024;DHT22;13033;50.936;5.334;2023-07-13T01:51:39;17.00;1.00
25024;DHT22;13033;50.936;5.334;2023-07-13T01:54:05;17.10;1.00
25024;DHT22;13033;50.936;5.334;2023-07-13T01:56:31;17.10;1.00
25024;DHT22;13033;50.936;5.334;2023-07-13T01:58:56;17.00;1.00
25024;DHT22;13033;50.936;5.334;2023-07-13T02:01:22;17.00;1.00
25024;DHT22;13033;50.936;5.334;2023-07-13T02:03:48;17.00;1.00
25024;DHT22;13033;50.936;5.334;2023-07-13T02:06:13;17.00;1.00
25024;DHT22;13033;50.936;5.334;2023-07-13T02:08:40;16.90;1.00
25024;DHT22;13033;50.936;5.334;2023-07-13T02:11:06;17.00;1.00
25024;DHT22;13033;50.936;5.334;2023-07-13T02:13:32;17.20;1.00
25024;DHT22;13033;50.936;5.334;2023-07-13T02:15:57;17.20;1.00
25024;DHT22;13033;50.936;5.334;2023-07-13T02:18:23;17.20;1.00
25024;DHT22;13033;50.936;5.334;2023-07-13T02:20:48;17.10;1.00
25024;DHT22;13033;50.936;5.334;2023-07-13T02:23:14;16.90;1.10
25024;DHT22;13033;50.936;5.334;2023-07-13T02:25:40;16.90;3.10
25024;DHT22;13033;50.936;5.334;2023-07-13T02:28:05;16.80;8.90
25024;DHT22;13033;50.936;5.334;2023-07-13T02:30:31;16.80;10.80
25024;DHT22;13033;50.936;5.334;2023-07-13T02:32:57;16.80;12.70
25024;DHT22;13033;50.936;5.334;2023-07-13T02:35:23;16.90;10.30
25024;DHT22;13033;50.936;5.334;2023-07-13T02:37:48;16.80;12.90
25024;DHT22;13033;50.936;5.334;2023-07-13T02:40:14;16.90;10.30
25024;DHT22;13033;50.936;5.334;2023-07-13T02:42:40;16.80;9.50
25024;DHT22;13033;50.936;5.334;2023-07-13T02:45:07;16.70;14.70
25024;DHT22;13033;50.936;5.334;2023-07-13T02:47:34;16.70;19.60
25024;DHT22;13033;50.936;5.334;2023-07-13T02:49:59;16.50;25.20
25024;DHT22;13033;50.936;5.334;2023-07-13T02:52:26;16.50;28.80
25024;DHT22;13033;50.936;5.334;2023-07-13T02:54:52;16.60;25.30
25024;DHT22;13033;50.936;5.334;2023-07-13T02:57:17;16.50;28.80
25024;DHT22;13033;50.936;5.334;2023-07-13T02:59:43;16.60;26.70
25024;DHT22;13033;50.936;5.334;2023-07-13T03:02:08;16.70;22.20
25024;DHT22;13033;50.936;5.334;2023-07-13T03:04:36;16.50;29.40
25024;DHT22;13033;50.936;5.334;2023-07-13T03:07:02;16.50;32.60
25024;DHT22;13033;50.936;5.334;2023-07-13T03:09:28;16.60;34.30
25024;DHT22;13033;50.936;5.334;2023-07-13T03:11:54;16.60;30.20
25024;DHT22;13033;50.936;5.334;2023-07-13T03:14:22;16.60;31.90
25024;DHT22;13033;50.936;5.334;2023-07-13T03:16:49;16.60;33.50
25024;DHT22;13033;50.936;5.334;2023-07-13T03:19:15;16.60;31.40
25024;DHT22;13033;50.936;5.334;2023-07-13T03:21:41;16.60;35.80
25024;DHT22;13033;50.936;5.334;2023-07-13T03:24:07;16.60;35.80
25024;DHT22;13033;50.936;5.334;2023-07-13T03:26:32;16.70;30.40
25024;DHT22;13033;50.936;5.334;2023-07-13T03:28:58;16.60;34.20
25024;DHT22;13033;50.936;5.334;2023-07-13T03:31:29;16.40;43.70
25024;DHT22;13033;50.936;5.334;2023-07-13T03:33:56;16.50;45.70
25024;DHT22;13033;50.936;5.334;2023-07-13T03:36:25;16.40;46.30
25024;DHT22;13033;50.936;5.334;2023-07-13T03:38:54;16.50;44.80
25024;DHT22;13033;50.936;5.334;2023-07-13T03:41:21;16.50;43.80
25024;DHT22;13033;50.936;5.334;2023-07-13T03:43:47;16.40;48.00
25024;DHT22;13033;50.936;5.334;2023-07-13T03:46:16;16.60;44.30
25024;DHT22;13033;50.936;5.334;2023-07-13T03:48:42;16.60;42.80
25024;DHT22;13033;50.936;5.334;2023-07-13T03:51:10;16.70;41.70
25024;DHT22;13033;50.936;5.334;2023-07-13T03:53:39;16.80;36.40
25024;DHT22;13033;50.936;5.334;2023-07-13T03:56:05;16.80;34.50
25024;DHT22;13033;50.936;5.334;2023-07-13T03:58:35;16.80;35.90
25024;DHT22;13033;50.936;5.334;2023-07-13T04:01:03;16.90;31.80
25024;DHT22;13033;50.936;5.334;2023-07-13T04:03:29;16.90;32.60
25024;DHT22;13033;50.936;5.334;2023-07-13T04:05:58;17.00;28.90
25024;DHT22;13033;50.936;5.334;2023-07-13T04:08:29;16.90;30.10
25024;DHT22;13033;50.936;5.334;2023-07-13T04:10:55;17.00;29.00
25024;DHT22;13033;50.936;5.334;2023-07-13T04:13:21;17.00;28.50
25024;DHT22;13033;50.936;5.334;2023-07-13T04:15:46;16.90;30.80
25024;DHT22;13033;50.936;5.334;2023-07-13T04:18:12;17.00;31.60
25024;DHT22;13033;50.936;5.334;2023-07-13T04:20:38;17.10;26.50
25024;DHT22;13033;50.936;5.334;2023-07-13T04:23:03;16.90;29.10
25024;DHT22;13033;50.936;5.334;2023-07-13T04:25:29;16.90;32.60
25024;DHT22;13033;50.936;5.334;2023-07-13T04:27:55;17.00;32.90
25024;DHT22;13033;50.936;5.334;2023-07-13T04:30:22;17.10;28.60
25024;DHT22;13033;50.936;5.334;2023-07-13T04:32:49;17.00;30.00
25024;DHT22;13033;50.936;5.334;2023-07-13T04:35:15;17.00;31.70
25024;DHT22;13033;50.936;5.334;2023-07-13T04:37:41;17.00;31.30
25024;DHT22;13033;50.936;5.334;2023-07-13T04:40:07;17.20;25.20
25024;DHT22;13033;50.936;5.334;2023-07-13T04:42:37;17.20;25.20
25024;DHT22;13033;50.936;5.334;2023-07-13T04:45:05;17.30;21.20
25024;DHT22;13033;50.936;5.334;2023-07-13T04:47:31;17.30;19.30
25024;DHT22;13033;50.936;5.334;2023-07-13T04:49:57;17.30;25.00
25024;DHT22;13033;50.936;5.334;2023-07-13T04:52:23;17.40;19.70
25024;DHT22;13033;50.936;5.334;2023-07-13T04:54:49;17.30;21.30
25024;DHT22;13033;50.936;5.334;2023-07-13T04:57:14;17.20;26.90
25024;DHT22;13033;50.936;5.334;2023-07-13T04:59:40;17.40;24.30
25024;DHT22;13033;50.936;5.334;2023-07-13T05:02:06;17.50;18.50
25024;DHT22;13033;50.936;5.334;2023-07-13T05:04:32;17.50;18.10
25024;DHT22;13033;50.936;5.334;2023-07-13T05:06:58;17.30;25.60
25024;DHT22;13033;50.936;5.334;2023-07-13T05:09:24;17.30;29.20
25024;DHT22;13033;50.936;5.334;2023-07-13T05:11:49;17.40;25.60
25024;DHT22;13033;50.936;5.334;2023-07-13T05:14:15;17.60;21.00
25024;DHT22;13033;50.936;5.334;2023-07-13T05:16:42;17.60;21.50
25024;DHT22;13033;50.936;5.334;2023-07-13T05:19:08;17.60;21.70
25024;DHT22;13033;50.936;5.334;2023-07-13T05:21:34;17.70;18.80
25024;DHT22;13033;50.936;5.334;2023-07-13T05:24:00;17.60;23.60
25024;DHT22;13033;50.936;5.334;2023-07-13T05:26:25;17.30;31.50
25024;DHT22;13033;50.936;5.334;2023-07-13T05:28:51;17.40;30.80
25024;DHT22;13033;50.936;5.334;2023-07-13T05:31:17;17.40;36.00
25024;DHT22;13033;50.936;5.334;2023-07-13T05:33:42;17.40;33.90
25024;DHT22;13033;50.936;5.334;2023-07-13T05:36:08;17.50;31.30
25024;DHT22;13033;50.936;5.334;2023-07-13T05:38:34;17.60;28.80
25024;DHT22;13033;50.936;5.334;2023-07-13T05:41:00;17.60;28.70
25024;DHT22;13033;50.936;5.334;2023-07-13T05:43:26;17.60;31.90
25024;DHT22;13033;50.936;5.334;2023-07-13T05:45:53;17.80;27.60
25024;DHT22;13033;50.936;5.334;2023-07-13T05:48:19;17.70;27.50
25024;DHT22;13033;50.936;5.334;2023-07-13T05:50:45;17.80;24.70
25024;DHT22;13033;50.936;5.334;2023-07-13T05:53:12;17.80;27.40
25024;DHT22;13033;50.936;5.334;2023-07-13T05:55:45;17.90;25.70
25024;DHT22;13033;50.936;5.334;2023-07-13T05:58:18;18.00;20.90
25024;DHT22;13033;50.936;5.334;2023-07-13T06:00:45;18.20;16.50
25024;DHT22;13033;50.936;5.334;2023-07-13T06:03:10;18.10;20.70
25024;DHT22;13033;50.936;5.334;2023-07-13T06:05:37;18.10;22.80
25024;DHT22;13033;50.936;5.334;2023-07-13T06:08:03;18.30;14.60
25024;DHT22;13033;50.936;5.334;2023-07-13T06:10:31;18.30;17.50
25024;DHT22;13033;50.936;5.334;2023-07-13T06:12:57;18.10;27.20
25024;DHT22;13033;50.936;5.334;2023-07-13T06:15:23;18.40;19.00
25024;DHT22;13033;50.936;5.334;2023-07-13T06:17:48;18.40;15.70
25024;DHT22;13033;50.936;5.334;2023-07-13T06:20:14;18.30;20.50
25024;DHT22;13033;50.936;5.334;2023-07-13T06:22:40;18.50;12.80
25024;DHT22;13033;50.936;5.334;2023-07-13T06:25:06;18.50;10.50
25024;DHT22;13033;50.936;5.334;2023-07-13T06:27:32;18.40;17.80
25024;DHT22;13033;50.936;5.334;2023-07-13T06:29:57;18.40;20.80
25024;DHT22;13033;50.936;5.334;2023-07-13T06:32:23;18.60;14.10
25024;DHT22;13033;50.936;5.334;2023-07-13T06:34:49;18.70;5.80
25024;DHT22;13033;50.936;5.334;2023-07-13T06:37:17;19.00;1.00
25024;DHT22;13033;50.936;5.334;2023-07-13T06:39:43;18.90;3.00
25024;DHT22;13033;50.936;5.334;2023-07-13T06:42:09;18.90;1.00
25024;DHT22;13033;50.936;5.334;2023-07-13T06:44:35;18.90;1.00
25024;DHT22;13033;50.936;5.334;2023-07-13T06:47:00;18.90;1.00
25024;DHT22;13033;50.936;5.334;2023-07-13T06:49:26;19.10;1.00
25024;DHT22;13033;50.936;5.334;2023-07-13T06:51:51;19.10;1.00
25024;DHT22;13033;50.936;5.334;2023-07-13T06:54:17;19.10;1.00
25024;DHT22;13033;50.936;5.334;2023-07-13T06:56:43;19.10;1.00
25024;DHT22;13033;50.936;5.334;2023-07-13T06:59:08;19.10;1.00
25024;DHT22;13033;50.936;5.334;2023-07-13T07:01:34;19.00;1.00
25024;DHT22;13033;50.936;5.334;2023-07-13T07:04:00;19.00;1.00
25024;DHT22;13033;50.936;5.334;2023-07-13T07:06:26;19.30;1.00
25024;DHT22;13033;50.936;5.334;2023-07-13T07:08:52;19.20;1.00
25024;DHT22;13033;50.936;5.334;2023-07-13T07:11:27;19.50;1.00
25024;DHT22;13033;50.936;5.334;2023-07-13T07:13:53;19.50;1.00
25024;DHT22;13033;50.936;5.334;2023-07-13T07:16:20;19.60;1.00
25024;DHT22;13033;50.936;5.334;2023-07-13T07:18:46;19.50;1.00
25024;DHT22;13033;50.936;5.334;2023-07-13T07:21:13;19.50;1.00
25024;DHT22;13033;50.936;5.334;2023-07-13T07:23:39;19.70;1.00
25024;DHT22;13033;50.936;5.334;2023-07-13T07:26:05;19.80;1.00
25024;DHT22;13033;50.936;5.334;2023-07-13T07:28:30;19.70;1.00
25024;DHT22;13033;50.936;5.334;2023-07-13T07:30:58;19.60;1.00
25024;DHT22;13033;50.936;5.334;2023-07-13T07:33:24;19.80;1.00
25024;DHT22;13033;50.936;5.334;2023-07-13T07:35:50;19.90;1.00
25024;DHT22;13033;50.936;5.334;2023-07-13T07:38:16;19.80;1.00
25024;DHT22;13033;50.936;5.334;2023-07-13T07:40:42;19.80;1.00
25024;DHT22;13033;50.936;5.334;2023-07-13T07:43:09;19.70;1.00
25024;DHT22;13033;50.936;5.334;2023-07-13T07:45:35;19.60;1.00
25024;DHT22;13033;50.936;5.334;2023-07-13T07:48:03;19.90;1.00
25024;DHT22;13033;50.936;5.334;2023-07-13T07:50:29;20.10;1.00
25024;DHT22;13033;50.936;5.334;2023-07-13T07:52:55;20.20;1.00
25024;DHT22;13033;50.936;5.334;2023-07-13T07:55:24;20.20;1.00
25024;DHT22;13033;50.936;5.334;2023-07-13T07:57:51;20.30;1.00
25024;DHT22;13033;50.936;5.334;2023-07-13T08:00:17;20.20;1.00
25024;DHT22;13033;50.936;5.334;2023-07-13T08:02:43;20.10;1.00
25024;DHT22;13033;50.936;5.334;2023-07-13T08:05:09;20.30;1.00
25024;DHT22;13033;50.936;5.334;2023-07-13T08:07:39;20.50;1.00
25024;DHT22;13033;50.936;5.334;2023-07-13T08:10:06;20.60;1.00
25024;DHT22;13033;50.936;5.334;2023-07-13T08:12:37;20.50;1.00
25024;DHT22;13033;50.936;5.334;2023-07-13T08:15:03;20.50;1.00
25024;DHT22;13033;50.936;5.334;2023-07-13T08:17:29;20.80;1.00
25024;DHT22;13033;50.936;5.334;2023-07-13T08:19:55;21.00;1.00
25024;DHT22;13033;50.936;5.334;2023-07-13T08:22:20;21.20;1.00
25024;DHT22;13033;50.936;5.334;2023-07-13T08:24:46;21.30;1.00
25024;DHT22;13033;50.936;5.334;2023-07-13T08:27:12;21.50;1.00
25024;DHT22;13033;50.936;5.334;2023-07-13T08:29:39;21.50;1.00
25024;DHT22;13033;50.936;5.334;2023-07-13T08:32:06;21.40;1.00
25024;DHT22;13033;50.936;5.334;2023-07-13T08:34:35;21.00;1.00
25024;DHT22;13033;50.936;5.334;2023-07-13T08:37:01;21.00;1.00
25024;DHT22;13033;50.936;5.334;2023-07-13T08:39:27;21.10;1.00
25024;DHT22;13033;50.936;5.334;2023-07-13T08:41:58;21.10;1.00
25024;DHT22;13033;50.936;5.334;2023-07-13T08:44:37;21.10;1.00
25024;DHT22;13033;50.936;5.334;2023-07-13T08:47:06;21.20;1.00
25024;DHT22;13033;50.936;5.334;2023-07-13T08:49:33;21.40;1.00
25024;DHT22;13033;50.936;5.334;2023-07-13T08:52:16;21.40;1.00
25024;DHT22;13033;50.936;5.334;2023-07-13T08:54:47;21.40;1.00
25024;DHT22;13033;50.936;5.334;2023-07-13T08:57:17;21.10;1.00
25024;DHT22;13033;50.936;5.334;2023-07-13T08:59:44;21.10;1.00
25024;DHT22;13033;50.936;5.334;2023-07-13T09:02:26;21.50;1.00
25024;DHT22;13033;50.936;5.334;2023-07-13T09:05:26;21.70;1.00
25024;DHT22;13033;50.936;5.334;2023-07-13T09:14:19;21.30;1.00
25024;DHT22;13033;50.936;5.334;2023-07-13T09:16:50;21.30;1.00
25024;DHT22;13033;50.936;5.334;2023-07-13T09:19:21;21.40;1.00
25024;DHT22;13033;50.936;5.334;2023-07-13T09:21:50;21.60;1.00
25024;DHT22;13033;50.936;5.334;2023-07-13T09:27:30;21.70;1.00
25024;DHT22;13033;50.936;5.334;2023-07-13T09:32:54;21.60;1.00
25024;DHT22;13033;50.936;5.334;2023-07-13T09:35:23;21.80;1.00
25024;DHT22;13033;50.936;5.334;2023-07-13T09:37:50;22.10;1.00
25024;DHT22;13033;50.936;5.334;2023-07-13T09:40:40;22.50;99.90
25024;DHT22;13033;50.936;5.334;2023-07-13T09:43:10;22.70;99.90
25024;DHT22;13033;50.936;5.334;2023-07-13T09:45:38;22.70;99.90
25024;DHT22;13033;50.936;5.334;2023-07-13T09:48:07;22.80;99.90
25024;DHT22;13033;50.936;5.334;2023-07-13T09:50:34;22.60;99.90
25024;DHT22;13033;50.936;5.334;2023-07-13T09:53:01;22.00;99.90
25024;DHT22;13033;50.936;5.334;2023-07-13T09:57:56;22.20;99.90
25024;DHT22;13033;50.936;5.334;2023-07-13T10:00:29;22.00;99.90
25024;DHT22;13033;50.936;5.334;2023-07-13T10:03:03;22.00;99.90
25024;DHT22;13033;50.936;5.334;2023-07-13T10:05:38;21.90;99.90
25024;DHT22;13033;50.936;5.334;2023-07-13T10:08:04;22.10;99.90
25024;DHT22;13033;50.936;5.334;2023-07-13T10:10:32;22.50;99.90
25024;DHT22;13033;50.936;5.334;2023-07-13T10:12:58;22.80;99.90
25024;DHT22;13033;50.936;5.334;2023-07-13T10:15:25;23.00;50.00
25024;DHT22;13033;50.936;5.334;2023-07-13T10:17:53;22.90;53.70
25024;DHT22;13033;50.936;5.334;2023-07-13T10:20:21;23.10;15.80
25024;DHT22;13033;50.936;5.334;2023-07-13T10:23:02;23.10;1.00
25024;DHT22;13033;50.936;5.334;2023-07-13T10:25:33;23.40;99.90
25024;DHT22;13033;50.936;5.334;2023-07-13T10:28:11;23.80;99.90
25024;DHT22;13033;50.936;5.334;2023-07-13T10:30:41;23.90;99.90
25024;DHT22;13033;50.936;5.334;2023-07-13T10:33:13;23.60;99.90
25024;DHT22;13033;50.936;5.334;2023-07-13T10:35:42;23.30;99.90
25024;DHT22;13033;50.936;5.334;2023-07-13T10:38:15;23.20;17.30
25024;DHT22;13033;50.936;5.334;2023-07-13T10:41:05;22.80;99.90
25024;DHT22;13033;50.936;5.334;2023-07-13T10:43:54;23.00;99.90
25024;DHT22;13033;50.936;5.334;2023-07-13T10:46:24;22.80;99.90
25024;DHT22;13033;50.936;5.334;2023-07-13T10:48:57;22.80;1.00
25024;DHT22;13033;50.936;5.334;2023-07-13T10:51:24;22.90;99.90
25024;DHT22;13033;50.936;5.334;2023-07-13T10:57:16;22.40;55.20
25024;DHT22;13033;50.936;5.334;2023-07-13T11:02:28;22.50;99.90
25024;DHT22;13033;50.936;5.334;2023-07-13T11:04:56;23.10;52.80
25024;DHT22;13033;50.936;5.334;2023-07-13T11:07:30;23.40;99.90
25024;DHT22;13033;50.936;5.334;2023-07-13T11:10:04;23.70;1.00
25024;DHT22;13033;50.936;5.334;2023-07-13T11:12:51;23.80;1.00
25024;DHT22;13033;50.936;5.334;2023-07-13T11:15:32;24.00;99.90
25024;DHT22;13033;50.936;5.334;2023-07-13T11:18:20;24.20;1.00
25024;DHT22;13033;50.936;5.334;2023-07-13T11:20:48;24.40;99.90
25024;DHT22;13033;50.936;5.334;2023-07-13T11:25:42;24.50;1.00
25024;DHT22;13033;50.936;5.334;2023-07-13T11:31:02;24.20;47.60
25024;DHT22;13033;50.936;5.334;2023-07-13T11:33:56;24.30;99.90
25024;DHT22;13033;50.936;5.334;2023-07-13T11:36:24;24.00;1.00
25024;DHT22;13033;50.936;5.334;2023-07-13T11:39:17;24.20;99.90
25024;DHT22;13033;50.936;5.334;2023-07-13T11:41:46;24.30;1.00
25024;DHT22;13033;50.936;5.334;2023-07-13T11:44:18;23.90;99.90
25024;DHT22;13033;50.936;5.334;2023-07-13T11:46:58;24.00;99.90
25024;DHT22;13033;50.936;5.334;2023-07-13T11:49:28;24.40;99.90
25024;DHT22;13033;50.936;5.334;2023-07-13T11:51:54;24.50;1.00
25024;DHT22;13033;50.936;5.334;2023-07-13T11:54:31;24.80;1.00
25024;DHT22;13033;50.936;5.334;2023-07-13T11:57:41;24.60;1.00
25024;DHT22;13033;50.936;5.334;2023-07-13T11:59:49;24.90;1.00
25024;DHT22;13033;50.936;5.334;2023-07-13T12:02:28;25.30;99.90
25024;DHT22;13033;50.936;5.334;2023-07-13T12:04:54;25.40;99.90
25024;DHT22;13033;50.936;5.334;2023-07-13T12:07:20;25.30;1.00
25024;DHT22;13033;50.936;5.334;2023-07-13T12:09:46;25.10;1.00
25024;DHT22;13033;50.936;5.334;2023-07-13T12:12:13;24.60;1.00
25024;DHT22;13033;50.936;5.334;2023-07-13T12:14:40;24.40;24.40
25024;DHT22;13033;50.936;5.334;2023-07-13T12:17:16;24.60;99.90
25024;DHT22;13033;50.936;5.334;2023-07-13T12:19:43;24.70;44.20
25024;DHT22;13033;50.936;5.334;2023-07-13T12:22:11;24.70;92.50
25024;DHT22;13033;50.936;5.334;2023-07-13T12:24:37;24.60;99.90
25024;DHT22;13033;50.936;5.334;2023-07-13T12:27:04;24.60;99.90
25024;DHT22;13033;50.936;5.334;2023-07-13T12:29:32;24.60;99.90
25024;DHT22;13033;50.936;5.334;2023-07-13T12:31:58;24.90;48.20
25024;DHT22;13033;50.936;5.334;2023-07-13T12:34:25;25.10;1.00
25024;DHT22;13033;50.936;5.334;2023-07-13T12:37:02;25.30;1.00
25024;DHT22;13033;50.936;5.334;2023-07-13T12:39:44;25.60;1.00
25024;DHT22;13033;50.936;5.334;2023-07-13T12:42:23;26.10;99.90
25024;DHT22;13033;50.936;5.334;2023-07-13T12:45:03;26.10;99.90
25024;DHT22;13033;50.936;5.334;2023-07-13T12:47:42;25.20;99.90
25024;DHT22;13033;50.936;5.334;2023-07-13T12:50:17;24.50;99.90
25024;DHT22;13033;50.936;5.334;2023-07-13T12:52:44;24.40;1.00
25024;DHT22;13033;50.936;5.334;2023-07-13T12:55:17;24.60;99.90
25024;DHT22;13033;50.936;5.334;2023-07-13T12:57:59;24.80;99.90
25024;DHT22;13033;50.936;5.334;2023-07-13T13:03:07;25.00;99.90
25024;DHT22;13033;50.936;5.334;2023-07-13T13:05:39;24.70;99.90
25024;DHT22;13033;50.936;5.334;2023-07-13T13:08:05;24.50;99.90
25024;DHT22;13033;50.936;5.334;2023-07-13T13:10:30;24.30;99.90
25024;DHT22;13033;50.936;5.334;2023-07-13T13:12:56;24.10;99.90
25024;DHT22;13033;50.936;5.334;2023-07-13T13:15:22;24.00;99.90
25024;DHT22;13033;50.936;5.334;2023-07-13T13:17:49;23.80;99.90
25024;DHT22;13033;50.936;5.334;2023-07-13T13:20:18;23.80;99.90
25024;DHT22;13033;50.936;5.334;2023-07-13T13:22:44;23.70;99.90
25024;DHT22;13033;50.936;5.334;2023-07-13T13:25:11;23.50;99.90
25024;DHT22;13033;50.936;5.334;2023-07-13T13:27:37;23.40;99.90
25024;DHT22;13033;50.936;5.334;2023-07-13T13:30:05;23.40;1.00
25024;DHT22;13033;50.936;5.334;2023-07-13T13:32:34;22.90;99.90
25024;DHT22;13033;50.936;5.334;2023-07-13T13:35:00;21.90;1.00
25024;DHT22;13033;50.936;5.334;2023-07-13T13:37:26;21.20;99.90
25024;DHT22;13033;50.936;5.334;2023-07-13T13:39:52;20.90;1.00
25024;DHT22;13033;50.936;5.334;2023-07-13T13:42:19;20.80;1.00
25024;DHT22;13033;50.936;5.334;2023-07-13T13:44:46;20.70;1.00
25024;DHT22;13033;50.936;5.334;2023-07-13T13:47:31;20.50;1.00
25024;DHT22;13033;50.936;5.334;2023-07-13T13:49:58;20.30;1.00
25024;DHT22;13033;50.936;5.334;2023-07-13T13:52:25;20.30;1.00
25024;DHT22;13033;50.936;5.334;2023-07-13T13:54:51;20.40;1.00
25024;DHT22;13033;50.936;5.334;2023-07-13T13:57:22;20.30;1.00
25024;DHT22;13033;50.936;5.334;2023-07-13T13:59:49;20.30;1.00
25024;DHT22;13033;50.936;5.334;2023-07-13T14:02:26;20.30;1.00
25024;DHT22;13033;50.936;5.334;2023-07-13T14:04:58;20.30;1.00
25024;DHT22;13033;50.936;5.334;2023-07-13T14:07:25;20.30;1.00
25024;DHT22;13033;50.936;5.334;2023-07-13T14:09:52;20.50;1.00
25024;DHT22;13033;50.936;5.334;2023-07-13T14:12:18;20.60;1.00
25024;DHT22;13033;50.936;5.334;2023-07-13T14:14:44;20.70;1.00
25024;DHT22;13033;50.936;5.334;2023-07-13T14:17:24;20.80;1.00
25024;DHT22;13033;50.936;5.334;2023-07-13T14:19:51;21.10;1.00
25024;DHT22;13033;50.936;5.334;2023-07-13T14:22:20;21.40;1.00
25024;DHT22;13033;50.936;5.334;2023-07-13T14:24:46;21.70;1.00
25024;DHT22;13033;50.936;5.334;2023-07-13T14:27:12;21.90;99.90
25024;DHT22;13033;50.936;5.334;2023-07-13T14:29:38;21.60;1.00
25024;DHT22;13033;50.936;5.334;2023-07-13T14:32:04;21.60;1.00
25024;DHT22;13033;50.936;5.334;2023-07-13T14:34:31;21.60;1.00
25024;DHT22;13033;50.936;5.334;2023-07-13T14:36:57;21.50;1.00
25024;DHT22;13033;50.936;5.334;2023-07-13T14:39:24;21.60;1.00
25024;DHT22;13033;50.936;5.334;2023-07-13T14:41:52;21.50;1.00
25024;DHT22;13033;50.936;5.334;2023-07-13T14:44:22;21.40;1.00
25024;DHT22;13033;50.936;5.334;2023-07-13T14:46:49;21.60;1.00
25024;DHT22;13033;50.936;5.334;2023-07-13T14:49:37;21.80;1.00
25024;DHT22;13033;50.936;5.334;2023-07-13T14:54:36;22.40;99.90
25024;DHT22;13033;50.936;5.334;2023-07-13T14:57:09;22.90;99.90
25024;DHT22;13033;50.936;5.334;2023-07-13T14:59:35;23.90;99.90
25024;DHT22;13033;50.936;5.334;2023-07-13T15:02:01;25.10;99.90
25024;DHT22;13033;50.936;5.334;2023-07-13T15:04:27;25.50;99.90
25024;DHT22;13033;50.936;5.334;2023-07-13T15:06:57;25.10;99.90
25024;DHT22;13033;50.936;5.334;2023-07-13T15:09:25;24.80;47.30
25024;DHT22;13033;50.936;5.334;2023-07-13T15:11:55;24.90;95.50
25024;DHT22;13033;50.936;5.334;2023-07-13T15:14:21;25.30;1.00
25024;DHT22;13033;50.936;5.334;2023-07-13T15:16:49;25.10;99.90
25024;DHT22;13033;50.936;5.334;2023-07-13T15:19:17;25.00;99.90
25024;DHT22;13033;50.936;5.334;2023-07-13T15:21:43;25.60;99.90
25024;DHT22;13033;50.936;5.334;2023-07-13T15:24:10;25.90;1.00
25024;DHT22;13033;50.936;5.334;2023-07-13T15:26:36;26.10;99.90
25024;DHT22;13033;50.936;5.334;2023-07-13T15:29:02;26.10;99.90
25024;DHT22;13033;50.936;5.334;2023-07-13T15:31:28;26.10;99.90
25024;DHT22;13033;50.936;5.334;2023-07-13T15:33:56;26.20;99.90
25024;DHT22;13033;50.936;5.334;2023-07-13T15:36:23;26.50;99.90
25024;DHT22;13033;50.936;5.334;2023-07-13T15:38:53;27.10;99.90
25024;DHT22;13033;50.936;5.334;2023-07-13T15:41:20;28.00;99.90
25024;DHT22;13033;50.936;5.334;2023-07-13T15:43:49;28.60;1.00
25024;DHT22;13033;50.936;5.334;2023-07-13T15:46:16;29.50;1.00
25024;DHT22;13033;50.936;5.334;2023-07-13T15:48:41;29.50;99.90
25024;DHT22;13033;50.936;5.334;2023-07-13T15:51:12;29.10;99.90
25024;DHT22;13033;50.936;5.334;2023-07-13T15:53:40;29.40;99.90
25024;DHT22;13033;50.936;5.334;2023-07-13T15:56:21;29.30;99.90
25024;DHT22;13033;50.936;5.334;2023-07-13T15:58:48;29.50;99.90
25024;DHT22;13033;50.936;5.334;2023-07-13T16:01:15;28.50;99.90
25024;DHT22;13033;50.936;5.334;2023-07-13T16:03:41;27.40;99.90
25024;DHT22;13033;50.936;5.334;2023-07-13T16:06:16;26.60;99.90
25024;DHT22;13033;50.936;5.334;2023-07-13T16:08:43;25.90;99.90
25024;DHT22;13033;50.936;5.334;2023-07-13T16:11:36;25.30;99.90
25024;DHT22;13033;50.936;5.334;2023-07-13T16:14:02;24.90;1.00
25024;DHT22;13033;50.936;5.334;2023-07-13T16:16:30;24.80;1.00
25024;DHT22;13033;50.936;5.334;2023-07-13T16:18:58;24.70;1.00